sensor_id;sensor_type;location;lat;lon;timestamp;P1;durP1;ratioP1;P2;durP2;ratioP2
34204;SDS011;20471;49.680;20.074;2023-08-01T00:00:12;5.60;;;2.90;;
34204;SDS011;20471;49.680;20.074;2023-08-01T00:46:43;5.70;;;3.70;;
34204;SDS011;20471;49.680;20.074;2023-08-01T00:49:14;3.30;;;2.80;;
34204;SDS011;20471;49.680;20.074;2023-08-01T00:51:40;7.30;;;3.30;;
34204;SDS011;20471;49.680;20.074;2023-08-01T00:54:07;6.70;;;3.40;;
34204;SDS011;20471;49.680;20.074;2023-08-01T00:56:33;4.70;;;3.30;;
34204;SDS011;20471;49.680;20.074;2023-08-01T00:59:00;4.90;;;3.00;;
34204;SDS011;20471;49.680;20.074;2023-08-01T01:01:26;5.10;;;3.10;;
34204;SDS011;20471;49.680;20.074;2023-08-01T01:03:53;4.50;;;3.10;;
34204;SDS011;20471;49.680;20.074;2023-08-01T01:06:22;4.40;;;3.70;;
34204;SDS011;20471;49.680;20.074;2023-08-01T01:08:54;7.40;;;3.80;;
34204;SDS011;20471;49.680;20.074;2023-08-01T01:11:21;9.80;;;3.50;;
34204;SDS011;20471;49.680;20.074;2023-08-01T01:13:47;7.00;;;3.60;;
34204;SDS011;20471;49.680;20.074;2023-08-01T01:16:13;4.10;;;3.60;;
34204;SDS011;20471;49.680;20.074;2023-08-01T01:18:40;8.60;;;3.70;;
34204;SDS011;20471;49.680;20.074;2023-08-01T01:21:06;11.30;;;3.40;;
34204;SDS011;20471;49.680;20.074;2023-08-01T01:23:51;9.50;;;3.40;;
34204;SDS011;20471;49.680;20.074;2023-08-01T01:26:18;5.50;;;3.70;;
34204;SDS011;20471;49.680;20.074;2023-08-01T01:28:49;4.60;;;3.00;;
34204;SDS011;20471;49.680;20.074;2023-08-01T01:31:19;4.50;;;3.30;;
34204;SDS011;20471;49.680;20.074;2023-08-01T01:33:45;8.00;;;3.70;;
34204;SDS011;20471;49.680;20.074;2023-08-01T01:36:12;5.30;;;3.60;;
34204;SDS011;20471;49.680;20.074;2023-08-01T01:38:38;9.10;;;3.80;;
34204;SDS011;20471;49.680;20.074;2023-08-01T01:41:04;4.70;;;3.60;;
34204;SDS011;20471;49.680;20.074;2023-08-01T01:43:31;7.90;;;3.10;;
34204;SDS011;20471;49.680;20.074;2023-08-01T01:45:57;5.90;;;3.40;;
34204;SDS011;20471;49.680;20.074;2023-08-01T01:48:23;4.50;;;3.40;;
34204;SDS011;20471;49.680;20.074;2023-08-01T01:50:49;5.70;;;3.20;;
34204;SDS011;20471;49.680;20.074;2023-08-01T01:53:16;4.50;;;3.10;;
34204;SDS011;20471;49.680;20.074;2023-08-01T01:55:42;6.00;;;3.50;;
34204;SDS011;20471;49.680;20.074;2023-08-01T01:58:08;8.80;;;4.40;;
34204;SDS011;20471;49.680;20.074;2023-08-01T02:00:35;6.80;;;3.30;;
34204;SDS011;20471;49.680;20.074;2023-08-01T02:03:01;7.60;;;3.30;;
34204;SDS011;20471;49.680;20.074;2023-08-01T02:05:28;5.30;;;4.00;;
34204;SDS011;20471;49.680;20.074;2023-08-01T02:07:55;5.00;;;3.50;;
34204;SDS011;20471;49.680;20.074;2023-08-01T02:10:23;6.80;;;3.70;;
34204;SDS011;20471;49.680;20.074;2023-08-01T02:12:49;8.30;;;3.90;;
34204;SDS011;20471;49.680;20.074;2023-08-01T02:15:15;9.90;;;4.00;;
34204;SDS011;20471;49.680;20.074;2023-08-01T02:17:42;11.10;;;4.30;;
34204;SDS011;20471;49.680;20.074;2023-08-01T02:20:08;7.60;;;4.00;;
34204;SDS011;20471;49.680;20.074;2023-08-01T02:22:35;10.90;;;4.60;;
34204;SDS011;20471;49.680;20.074;2023-08-01T02:25:01;9.70;;;4.10;;
34204;SDS011;20471;49.680;20.074;2023-08-01T02:27:27;5.70;;;4.50;;
34204;SDS011;20471;49.680;20.074;2023-08-01T02:29:54;9.20;;;4.30;;
34204;SDS011;20471;49.680;20.074;2023-08-01T02:32:20;6.80;;;4.80;;
34204;SDS011;20471;49.680;20.074;2023-08-01T02:34:46;7.90;;;4.40;;
34204;SDS011;20471;49.680;20.074;2023-08-01T02:37:13;4.90;;;3.90;;
34204;SDS011;20471;49.680;20.074;2023-08-01T02:39:39;9.00;;;4.50;;
34204;SDS011;20471;49.680;20.074;2023-08-01T02:42:05;6.00;;;4.40;;
34204;SDS011;20471;49.680;20.074;2023-08-01T02:44:32;10.20;;;4.60;;
34204;SDS011;20471;49.680;20.074;2023-08-01T02:46:58;5.60;;;4.70;;
34204;SDS011;20471;49.680;20.074;2023-08-01T02:49:24;6.30;;;4.50;;
34204;SDS011;20471;49.680;20.074;2023-08-01T02:51:51;6.40;;;4.30;;
34204;SDS011;20471;49.680;20.074;2023-08-01T02:54:17;7.20;;;5.00;;
34204;SDS011;20471;49.680;20.074;2023-08-01T02:56:43;8.30;;;4.40;;
34204;SDS011;20471;49.680;20.074;2023-08-01T02:59:10;5.90;;;3.70;;
34204;SDS011;20471;49.680;20.074;2023-08-01T03:01:36;7.10;;;3.90;;
34204;SDS011;20471;49.680;20.074;2023-08-01T03:04:04;6.80;;;4.30;;
34204;SDS011;20471;49.680;20.074;2023-08-01T03:06:32;7.60;;;4.20;;
34204;SDS011;20471;49.680;20.074;2023-08-01T03:08:59;7.00;;;4.50;;
34204;SDS011;20471;49.680;20.074;2023-08-01T03:11:26;9.70;;;4.30;;
34204;SDS011;20471;49.680;20.074;2023-08-01T04:58:54;11.20;;;6.50;;
34204;SDS011;20471;49.680;20.074;2023-08-01T05:01:24;10.80;;;6.10;;
34204;SDS011;20471;49.680;20.074;2023-08-01T05:03:51;6.40;;;5.50;;
34204;SDS011;20471;49.680;20.074;2023-08-01T05:06:17;11.50;;;5.90;;
34204;SDS011;20471;49.680;20.074;2023-08-01T05:10:45;8.80;;;6.60;;
34204;SDS011;20471;49.680;20.074;2023-08-01T05:22:34;9.30;;;7.70;;
34204;SDS011;20471;49.680;20.074;2023-08-01T05:25:02;17.30;;;9.30;;
34204;SDS011;20471;49.680;20.074;2023-08-01T05:39:41;13.70;;;11.30;;
34204;SDS011;20471;49.680;20.074;2023-08-01T05:42:09;20.90;;;11.40;;
34204;SDS011;20471;49.680;20.074;2023-08-01T05:44:36;17.60;;;10.90;;
34204;SDS011;20471;49.680;20.074;2023-08-01T05:47:04;10.70;;;7.10;;
34204;SDS011;20471;49.680;20.074;2023-08-01T05:49:32;10.20;;;6.90;;
34204;SDS011;20471;49.680;20.074;2023-08-01T05:52:00;11.00;;;6.70;;
34204;SDS011;20471;49.680;20.074;2023-08-01T05:54:27;8.60;;;6.30;;
34204;SDS011;20471;49.680;20.074;2023-08-01T05:56:55;8.60;;;5.60;;
34204;SDS011;20471;49.680;20.074;2023-08-01T05:59:23;8.50;;;5.90;;
34204;SDS011;20471;49.680;20.074;2023-08-01T06:01:50;9.20;;;5.90;;
34204;SDS011;20471;49.680;20.074;2023-08-01T06:04:18;8.90;;;6.00;;
34204;SDS011;20471;49.680;20.074;2023-08-01T06:06:46;11.30;;;5.00;;
34204;SDS011;20471;49.680;20.074;2023-08-01T06:09:13;10.20;;;5.30;;
34204;SDS011;20471;49.680;20.074;2023-08-01T06:11:41;7.00;;;5.30;;
34204;SDS011;20471;49.680;20.074;2023-08-01T06:14:09;12.00;;;5.40;;
34204;SDS011;20471;49.680;20.074;2023-08-01T06:16:37;9.70;;;5.40;;
34204;SDS011;20471;49.680;20.074;2023-08-01T06:19:05;7.80;;;5.60;;
34204;SDS011;20471;49.680;20.074;2023-08-01T06:21:32;11.50;;;5.60;;
34204;SDS011;20471;49.680;20.074;2023-08-01T06:24:00;8.60;;;5.10;;
34204;SDS011;20471;49.680;20.074;2023-08-01T06:26:28;8.50;;;5.60;;
34204;SDS011;20471;49.680;20.074;2023-08-01T06:28:56;6.50;;;4.70;;
34204;SDS011;20471;49.680;20.074;2023-08-01T06:31:23;6.80;;;5.30;;
34204;SDS011;20471;49.680;20.074;2023-08-01T06:33:51;5.90;;;4.90;;
34204;SDS011;20471;49.680;20.074;2023-08-01T06:36:19;9.60;;;5.80;;
34204;SDS011;20471;49.680;20.074;2023-08-01T06:38:46;12.90;;;6.50;;
34204;SDS011;20471;49.680;20.074;2023-08-01T06:41:14;15.10;;;8.00;;
34204;SDS011;20471;49.680;20.074;2023-08-01T06:43:42;13.70;;;6.80;;
34204;SDS011;20471;49.680;20.074;2023-08-01T06:46:09;10.40;;;4.90;;
34204;SDS011;20471;49.680;20.074;2023-08-01T06:48:37;7.10;;;5.10;;
34204;SDS011;20471;49.680;20.074;2023-08-01T06:51:05;11.30;;;5.10;;
34204;SDS011;20471;49.680;20.074;2023-08-01T06:53:32;11.40;;;5.50;;
34204;SDS011;20471;49.680;20.074;2023-08-01T06:56:00;8.90;;;5.30;;
34204;SDS011;20471;49.680;20.074;2023-08-01T06:58:28;9.00;;;5.80;;
34204;SDS011;20471;49.680;20.074;2023-08-01T07:00:56;12.90;;;5.80;;
34204;SDS011;20471;49.680;20.074;2023-08-01T07:03:24;9.50;;;5.90;;
34204;SDS011;20471;49.680;20.074;2023-08-01T07:05:52;9.60;;;5.80;;
34204;SDS011;20471;49.680;20.074;2023-08-01T07:08:20;7.40;;;5.80;;
34204;SDS011;20471;49.680;20.074;2023-08-01T07:10:48;8.50;;;5.70;;
34204;SDS011;20471;49.680;20.074;2023-08-01T07:13:15;9.30;;;6.00;;
34204;SDS011;20471;49.680;20.074;2023-08-01T07:15:45;10.20;;;5.00;;
34204;SDS011;20471;49.680;20.074;2023-08-01T07:18:13;6.70;;;4.30;;
34204;SDS011;20471;49.680;20.074;2023-08-01T07:20:41;8.50;;;5.10;;
34204;SDS011;20471;49.680;20.074;2023-08-01T07:23:09;7.60;;;5.00;;
34204;SDS011;20471;49.680;20.074;2023-08-01T07:25:36;6.90;;;5.00;;
34204;SDS011;20471;49.680;20.074;2023-08-01T07:28:04;8.10;;;4.60;;
34204;SDS011;20471;49.680;20.074;2023-08-01T07:30:32;6.30;;;5.00;;
34204;SDS011;20471;49.680;20.074;2023-08-01T07:32:59;9.20;;;5.00;;
34204;SDS011;20471;49.680;20.074;2023-08-01T07:35:27;6.60;;;4.70;;
34204;SDS011;20471;49.680;20.074;2023-08-01T07:37:55;7.30;;;5.10;;
34204;SDS011;20471;49.680;20.074;2023-08-01T07:40:22;7.60;;;4.70;;
34204;SDS011;20471;49.680;20.074;2023-08-01T07:42:50;8.10;;;5.10;;
34204;SDS011;20471;49.680;20.074;2023-08-01T07:45:18;12.50;;;5.40;;
34204;SDS011;20471;49.680;20.074;2023-08-01T07:47:46;8.10;;;5.80;;
34204;SDS011;20471;49.680;20.074;2023-08-01T07:50:14;7.80;;;5.00;;
34204;SDS011;20471;49.680;20.074;2023-08-01T07:52:41;7.90;;;5.00;;
34204;SDS011;20471;49.680;20.074;2023-08-01T07:55:09;9.30;;;5.40;;
34204;SDS011;20471;49.680;20.074;2023-08-01T07:57:37;8.00;;;5.40;;
34204;SDS011;20471;49.680;20.074;2023-08-01T08:00:05;7.80;;;5.40;;
34204;SDS011;20471;49.680;20.074;2023-08-01T08:02:33;9.80;;;5.70;;
34204;SDS011;20471;49.680;20.074;2023-08-01T08:05:01;6.40;;;5.30;;
34204;SDS011;20471;49.680;20.074;2023-08-01T08:07:28;7.20;;;4.90;;
34204;SDS011;20471;49.680;20.074;2023-08-01T08:09:56;7.00;;;5.40;;
34204;SDS011;20471;49.680;20.074;2023-08-01T08:12:24;8.60;;;5.20;;
34204;SDS011;20471;49.680;20.074;2023-08-01T08:14:51;6.70;;;5.10;;
34204;SDS011;20471;49.680;20.074;2023-08-01T08:17:19;7.80;;;5.40;;
34204;SDS011;20471;49.680;20.074;2023-08-01T08:19:47;9.60;;;5.80;;
34204;SDS011;20471;49.680;20.074;2023-08-01T08:22:15;7.90;;;5.30;;
34204;SDS011;20471;49.680;20.074;2023-08-01T08:24:43;8.60;;;4.90;;
34204;SDS011;20471;49.680;20.074;2023-08-01T08:27:10;8.90;;;4.90;;
34204;SDS011;20471;49.680;20.074;2023-08-01T08:29:38;7.00;;;5.30;;
34204;SDS011;20471;49.680;20.074;2023-08-01T08:32:06;9.20;;;5.70;;
34204;SDS011;20471;49.680;20.074;2023-08-01T08:34:34;6.20;;;5.10;;
34204;SDS011;20471;49.680;20.074;2023-08-01T08:37:02;11.20;;;5.20;;
34204;SDS011;20471;49.680;20.074;2023-08-01T08:39:30;11.10;;;5.50;;
34204;SDS011;20471;49.680;20.074;2023-08-01T08:41:57;7.50;;;5.80;;
34204;SDS011;20471;49.680;20.074;2023-08-01T08:44:27;7.80;;;5.20;;
34204;SDS011;20471;49.680;20.074;2023-08-01T08:46:57;7.50;;;5.30;;
34204;SDS011;20471;49.680;20.074;2023-08-01T08:49:30;6.60;;;5.90;;
34204;SDS011;20471;49.680;20.074;2023-08-01T08:51:59;8.50;;;5.60;;
34204;SDS011;20471;49.680;20.074;2023-08-01T08:54:29;8.10;;;5.50;;
34204;SDS011;20471;49.680;20.074;2023-08-01T08:56:58;6.50;;;4.60;;
34204;SDS011;20471;49.680;20.074;2023-08-01T08:59:26;7.40;;;5.20;;
34204;SDS011;20471;49.680;20.074;2023-08-01T09:01:56;5.60;;;4.60;;
34204;SDS011;20471;49.680;20.074;2023-08-01T09:04:24;6.50;;;4.80;;
34204;SDS011;20471;49.680;20.074;2023-08-01T09:06:52;10.80;;;4.60;;
34204;SDS011;20471;49.680;20.074;2023-08-01T09:09:25;7.20;;;4.80;;
34204;SDS011;20471;49.680;20.074;2023-08-01T09:11:54;5.50;;;4.10;;
34204;SDS011;20471;49.680;20.074;2023-08-01T09:14:22;9.30;;;4.70;;
34204;SDS011;20471;49.680;20.074;2023-08-01T09:16:50;9.50;;;5.00;;
34204;SDS011;20471;49.680;20.074;2023-08-01T09:19:18;5.80;;;4.40;;
34204;SDS011;20471;49.680;20.074;2023-08-01T09:21:47;7.60;;;4.30;;
34204;SDS011;20471;49.680;20.074;2023-08-01T09:24:16;6.90;;;4.50;;
34204;SDS011;20471;49.680;20.074;2023-08-01T09:26:45;7.90;;;4.40;;
34204;SDS011;20471;49.680;20.074;2023-08-01T09:29:18;12.70;;;4.40;;
34204;SDS011;20471;49.680;20.074;2023-08-01T09:31:47;6.30;;;4.10;;
34204;SDS011;20471;49.680;20.074;2023-08-01T09:34:19;7.80;;;4.40;;
34204;SDS011;20471;49.680;20.074;2023-08-01T09:36:48;5.60;;;4.40;;
34204;SDS011;20471;49.680;20.074;2023-08-01T09:39:18;5.50;;;4.00;;
34204;SDS011;20471;49.680;20.074;2023-08-01T09:41:59;6.30;;;4.80;;
34204;SDS011;20471;49.680;20.074;2023-08-01T09:44:29;10.50;;;5.00;;
34204;SDS011;20471;49.680;20.074;2023-08-01T09:47:04;6.10;;;4.60;;
34204;SDS011;20471;49.680;20.074;2023-08-01T09:49:33;6.60;;;4.10;;
34204;SDS011;20471;49.680;20.074;2023-08-01T09:52:02;8.70;;;4.60;;
34204;SDS011;20471;49.680;20.074;2023-08-01T09:54:30;6.60;;;4.60;;
34204;SDS011;20471;49.680;20.074;2023-08-01T09:56:58;5.20;;;4.40;;
34204;SDS011;20471;49.680;20.074;2023-08-01T09:59:29;5.10;;;4.60;;
34204;SDS011;20471;49.680;20.074;2023-08-01T10:01:57;7.30;;;4.60;;
34204;SDS011;20471;49.680;20.074;2023-08-01T10:04:27;6.80;;;5.30;;
34204;SDS011;20471;49.680;20.074;2023-08-01T10:06:57;8.20;;;5.30;;
34204;SDS011;20471;49.680;20.074;2023-08-01T10:09:27;6.80;;;5.40;;
34204;SDS011;20471;49.680;20.074;2023-08-01T10:11:57;6.80;;;4.90;;
34204;SDS011;20471;49.680;20.074;2023-08-01T10:14:25;5.90;;;5.00;;
34204;SDS011;20471;49.680;20.074;2023-08-01T10:16:53;7.70;;;5.00;;
34204;SDS011;20471;49.680;20.074;2023-08-01T10:19:22;4.90;;;4.50;;
34204;SDS011;20471;49.680;20.074;2023-08-01T10:21:50;5.40;;;4.10;;
34204;SDS011;20471;49.680;20.074;2023-08-01T10:24:18;5.90;;;4.10;;
34204;SDS011;20471;49.680;20.074;2023-08-01T10:26:47;4.70;;;4.20;;
34204;SDS011;20471;49.680;20.074;2023-08-01T10:29:14;5.20;;;4.30;;
34204;SDS011;20471;49.680;20.074;2023-08-01T10:31:52;5.50;;;4.50;;
34204;SDS011;20471;49.680;20.074;2023-08-01T10:34:21;5.40;;;4.50;;
34204;SDS011;20471;49.680;20.074;2023-08-01T10:36:58;5.50;;;4.40;;
34204;SDS011;20471;49.680;20.074;2023-08-01T10:39:28;4.70;;;4.10;;
34204;SDS011;20471;49.680;20.074;2023-08-01T10:41:57;6.60;;;4.50;;
34204;SDS011;20471;49.680;20.074;2023-08-01T10:44:26;5.90;;;4.40;;
34204;SDS011;20471;49.680;20.074;2023-08-01T10:46:59;6.30;;;4.30;;
34204;SDS011;20471;49.680;20.074;2023-08-01T10:49:41;8.80;;;5.30;;
34204;SDS011;20471;49.680;20.074;2023-08-01T10:52:17;7.10;;;4.40;;
34204;SDS011;20471;49.680;20.074;2023-08-01T10:54:47;4.80;;;4.20;;
34204;SDS011;20471;49.680;20.074;2023-08-01T10:57:30;6.30;;;4.20;;
34204;SDS011;20471;49.680;20.074;2023-08-01T10:59:59;7.50;;;4.60;;
34204;SDS011;20471;49.680;20.074;2023-08-01T11:02:28;5.20;;;4.60;;
34204;SDS011;20471;49.680;20.074;2023-08-01T11:05:00;8.70;;;4.90;;
34204;SDS011;20471;49.680;20.074;2023-08-01T11:07:31;4.90;;;4.00;;
34204;SDS011;20471;49.680;20.074;2023-08-01T11:12:33;5.40;;;4.10;;
34204;SDS011;20471;49.680;20.074;2023-08-01T11:15:04;6.10;;;4.40;;
34204;SDS011;20471;49.680;20.074;2023-08-01T11:17:38;4.90;;;4.30;;
34204;SDS011;20471;49.680;20.074;2023-08-01T11:20:08;5.00;;;4.00;;
34204;SDS011;20471;49.680;20.074;2023-08-01T11:22:38;7.20;;;4.60;;
34204;SDS011;20471;49.680;20.074;2023-08-01T11:25:39;5.30;;;4.10;;
34204;SDS011;20471;49.680;20.074;2023-08-01T11:28:10;5.70;;;4.20;;
34204;SDS011;20471;49.680;20.074;2023-08-01T11:30:40;4.70;;;4.00;;
34204;SDS011;20471;49.680;20.074;2023-08-01T11:33:15;6.00;;;4.30;;
34204;SDS011;20471;49.680;20.074;2023-08-01T11:35:54;7.20;;;4.00;;
34204;SDS011;20471;49.680;20.074;2023-08-01T11:38:25;5.90;;;4.40;;
34204;SDS011;20471;49.680;20.074;2023-08-01T11:40:58;5.00;;;4.10;;
34204;SDS011;20471;49.680;20.074;2023-08-01T11:43:40;4.80;;;4.00;;
34204;SDS011;20471;49.680;20.074;2023-08-01T11:46:09;4.90;;;4.10;;
34204;SDS011;20471;49.680;20.074;2023-08-01T11:48:37;6.40;;;4.40;;
34204;SDS011;20471;49.680;20.074;2023-08-01T11:51:05;4.90;;;4.40;;
34204;SDS011;20471;49.680;20.074;2023-08-01T11:53:33;4.80;;;4.30;;
34204;SDS011;20471;49.680;20.074;2023-08-01T11:56:05;5.30;;;4.30;;
34204;SDS011;20471;49.680;20.074;2023-08-01T11:58:36;7.00;;;4.50;;
34204;SDS011;20471;49.680;20.074;2023-08-01T12:01:10;6.50;;;4.40;;
34204;SDS011;20471;49.680;20.074;2023-08-01T12:03:43;5.40;;;4.70;;
34204;SDS011;20471;49.680;20.074;2023-08-01T12:06:15;7.00;;;4.60;;
34204;SDS011;20471;49.680;20.074;2023-08-01T12:08:45;5.70;;;4.70;;
34204;SDS011;20471;49.680;20.074;2023-08-01T12:11:26;6.90;;;4.50;;
34204;SDS011;20471;49.680;20.074;2023-08-01T12:14:09;5.80;;;4.80;;
34204;SDS011;20471;49.680;20.074;2023-08-01T12:16:41;5.90;;;4.70;;
34204;SDS011;20471;49.680;20.074;2023-08-01T12:19:16;9.70;;;4.40;;
34204;SDS011;20471;49.680;20.074;2023-08-01T12:21:47;4.90;;;4.50;;
34204;SDS011;20471;49.680;20.074;2023-08-01T12:24:16;4.90;;;4.40;;
34204;SDS011;20471;49.680;20.074;2023-08-01T12:26:44;6.50;;;5.60;;
34204;SDS011;20471;49.680;20.074;2023-08-01T12:29:11;7.10;;;5.80;;
34204;SDS011;20471;49.680;20.074;2023-08-01T12:31:39;6.60;;;4.70;;
34204;SDS011;20471;49.680;20.074;2023-08-01T12:34:07;7.20;;;4.10;;
34204;SDS011;20471;49.680;20.074;2023-08-01T12:36:35;4.60;;;3.80;;
34204;SDS011;20471;49.680;20.074;2023-08-01T12:39:02;4.50;;;3.50;;
34204;SDS011;20471;49.680;20.074;2023-08-01T12:41:31;4.10;;;3.00;;
34204;SDS011;20471;49.680;20.074;2023-08-01T12:43:59;3.60;;;2.80;;
34204;SDS011;20471;49.680;20.074;2023-08-01T12:46:26;5.90;;;3.00;;
34204;SDS011;20471;49.680;20.074;2023-08-01T12:48:54;3.40;;;2.50;;
34204;SDS011;20471;49.680;20.074;2023-08-01T12:51:22;3.50;;;2.90;;
34204;SDS011;20471;49.680;20.074;2023-08-01T12:53:50;3.60;;;2.50;;
34204;SDS011;20471;49.680;20.074;2023-08-01T12:56:18;5.20;;;3.20;;
34204;SDS011;20471;49.680;20.074;2023-08-01T12:58:45;3.30;;;3.00;;
34204;SDS011;20471;49.680;20.074;2023-08-01T13:01:13;4.50;;;2.90;;
34204;SDS011;20471;49.680;20.074;2023-08-01T13:03:41;3.20;;;2.90;;
34204;SDS011;20471;49.680;20.074;2023-08-01T13:06:11;3.60;;;3.00;;
34204;SDS011;20471;49.680;20.074;2023-08-01T13:08:39;6.20;;;2.70;;
34204;SDS011;20471;49.680;20.074;2023-08-01T13:11:10;4.80;;;3.30;;
34204;SDS011;20471;49.680;20.074;2023-08-01T13:13:40;3.60;;;3.20;;
34204;SDS011;20471;49.680;20.074;2023-08-01T13:16:09;4.40;;;3.20;;
34204;SDS011;20471;49.680;20.074;2023-08-01T13:18:36;4.10;;;3.20;;
34204;SDS011;20471;49.680;20.074;2023-08-01T13:21:09;5.80;;;3.40;;
34204;SDS011;20471;49.680;20.074;2023-08-01T13:23:38;3.40;;;3.00;;
34204;SDS011;20471;49.680;20.074;2023-08-01T13:26:05;4.40;;;3.60;;
34204;SDS011;20471;49.680;20.074;2023-08-01T13:28:33;4.10;;;3.20;;
34204;SDS011;20471;49.680;20.074;2023-08-01T13:31:01;5.20;;;3.60;;
34204;SDS011;20471;49.680;20.074;2023-08-01T13:33:28;7.30;;;3.30;;
34204;SDS011;20471;49.680;20.074;2023-08-01T13:35:56;3.80;;;3.10;;
34204;SDS011;20471;49.680;20.074;2023-08-01T13:38:25;6.70;;;3.30;;
34204;SDS011;20471;49.680;20.074;2023-08-01T13:40:53;4.50;;;3.60;;
34204;SDS011;20471;49.680;20.074;2023-08-01T13:43:20;5.80;;;3.10;;
34204;SDS011;20471;49.680;20.074;2023-08-01T13:45:48;4.00;;;3.30;;
34204;SDS011;20471;49.680;20.074;2023-08-01T13:48:16;3.90;;;3.50;;
34204;SDS011;20471;49.680;20.074;2023-08-01T13:50:43;6.00;;;3.20;;
34204;SDS011;20471;49.680;20.074;2023-08-01T13:53:11;6.20;;;3.10;;
34204;SDS011;20471;49.680;20.074;2023-08-01T13:55:40;5.60;;;3.50;;
34204;SDS011;20471;49.680;20.074;2023-08-01T13:58:08;6.10;;;3.80;;
34204;SDS011;20471;49.680;20.074;2023-08-01T14:00:35;6.00;;;3.80;;
34204;SDS011;20471;49.680;20.074;2023-08-01T14:03:03;5.90;;;3.60;;
34204;SDS011;20471;49.680;20.074;2023-08-01T14:05:31;5.30;;;3.80;;
34204;SDS011;20471;49.680;20.074;2023-08-01T14:07:58;5.40;;;3.80;;
34204;SDS011;20471;49.680;20.074;2023-08-01T14:10:28;5.30;;;3.70;;
34204;SDS011;20471;49.680;20.074;2023-08-01T14:12:56;7.00;;;4.10;;
34204;SDS011;20471;49.680;20.074;2023-08-01T14:15:23;6.30;;;3.80;;
34204;SDS011;20471;49.680;20.074;2023-08-01T14:17:51;4.60;;;3.50;;
34204;SDS011;20471;49.680;20.074;2023-08-01T14:20:19;6.10;;;3.80;;
34204;SDS011;20471;49.680;20.074;2023-08-01T14:22:47;8.60;;;4.20;;
34204;SDS011;20471;49.680;20.074;2023-08-01T14:25:15;3.90;;;3.20;;
34204;SDS011;20471;49.680;20.074;2023-08-01T14:27:42;5.40;;;3.00;;
34204;SDS011;20471;49.680;20.074;2023-08-01T14:30:10;6.00;;;3.20;;
34204;SDS011;20471;49.680;20.074;2023-08-01T14:32:38;3.70;;;3.00;;
34204;SDS011;20471;49.680;20.074;2023-08-01T14:35:06;3.80;;;3.10;;
34204;SDS011;20471;49.680;20.074;2023-08-01T19:19:41;6.30;;;4.60;;
34204;SDS011;20471;49.680;20.074;2023-08-01T19:22:10;5.10;;;3.50;;
34204;SDS011;20471;49.680;20.074;2023-08-01T19:24:38;6.10;;;3.60;;
34204;SDS011;20471;49.680;20.074;2023-08-01T19:27:06;6.20;;;3.60;;
34204;SDS011;20471;49.680;20.074;2023-08-01T19:29:35;8.00;;;3.60;;
34204;SDS011;20471;49.680;20.074;2023-08-01T19:32:03;5.60;;;3.70;;
34204;SDS011;20471;49.680;20.074;2023-08-01T19:34:31;5.60;;;3.20;;
34204;SDS011;20471;49.680;20.074;2023-08-01T19:36:58;3.80;;;3.20;;
34204;SDS011;20471;49.680;20.074;2023-08-01T19:39:30;5.20;;;3.40;;
34204;SDS011;20471;49.680;20.074;2023-08-01T19:41:58;3.60;;;3.00;;
34204;SDS011;20471;49.680;20.074;2023-08-01T19:44:26;5.60;;;4.00;;
34204;SDS011;20471;49.680;20.074;2023-08-01T19:46:54;4.90;;;3.20;;
34204;SDS011;20471;49.680;20.074;2023-08-01T19:49:23;4.70;;;2.90;;
34204;SDS011;20471;49.680;20.074;2023-08-01T19:51:51;4.00;;;2.40;;
34204;SDS011;20471;49.680;20.074;2023-08-01T19:54:19;3.70;;;3.10;;
34204;SDS011;20471;49.680;20.074;2023-08-01T19:56:46;5.80;;;2.60;;
34204;SDS011;20471;49.680;20.074;2023-08-01T19:59:14;3.30;;;2.20;;
34204;SDS011;20471;49.680;20.074;2023-08-01T20:01:42;5.00;;;2.40;;
34204;SDS011;20471;49.680;20.074;2023-08-01T20:04:10;3.90;;;2.50;;
34204;SDS011;20471;49.680;20.074;2023-08-01T20:06:38;4.60;;;2.70;;
34204;SDS011;20471;49.680;20.074;2023-08-01T20:09:05;5.30;;;2.90;;
34204;SDS011;20471;49.680;20.074;2023-08-01T20:11:33;5.20;;;2.80;;
34204;SDS011;20471;49.680;20.074;2023-08-01T20:14:01;3.60;;;2.50;;
34204;SDS011;20471;49.680;20.074;2023-08-01T20:16:29;3.40;;;2.40;;
34204;SDS011;20471;49.680;20.074;2023-08-01T20:18:57;6.90;;;2.60;;
34204;SDS011;20471;49.680;20.074;2023-08-01T20:21:25;4.00;;;2.20;;
34204;SDS011;20471;49.680;20.074;2023-08-01T20:23:53;2.50;;;2.00;;
34204;SDS011;20471;49.680;20.074;2023-08-01T20:26:21;10.70;;;2.20;;
34204;SDS011;20471;49.680;20.074;2023-08-01T20:28:48;3.60;;;2.40;;
34204;SDS011;20471;49.680;20.074;2023-08-01T20:31:17;4.10;;;2.70;;
34204;SDS011;20471;49.680;20.074;2023-08-01T20:33:44;6.90;;;2.60;;
34204;SDS011;20471;49.680;20.074;2023-08-01T20:36:12;6.30;;;3.30;;
34204;SDS011;20471;49.680;20.074;2023-08-01T20:38:40;6.00;;;3.00;;
34204;SDS011;20471;49.680;20.074;2023-08-01T20:41:14;7.50;;;3.40;;
34204;SDS011;20471;49.680;20.074;2023-08-01T20:43:43;9.20;;;3.40;;
34204;SDS011;20471;49.680;20.074;2023-08-01T20:46:11;4.70;;;3.10;;
34204;SDS011;20471;49.680;20.074;2023-08-01T20:48:39;4.80;;;2.80;;
34204;SDS011;20471;49.680;20.074;2023-08-01T20:51:07;4.10;;;2.70;;
34204;SDS011;20471;49.680;20.074;2023-08-01T20:53:34;4.30;;;2.90;;
34204;SDS011;20471;49.680;20.074;2023-08-01T20:56:02;4.00;;;2.60;;
34204;SDS011;20471;49.680;20.074;2023-08-01T20:58:30;4.10;;;3.70;;
34204;SDS011;20471;49.680;20.074;2023-08-01T21:00:58;4.90;;;3.70;;
34204;SDS011;20471;49.680;20.074;2023-08-01T21:03:29;3.90;;;3.10;;
34204;SDS011;20471;49.680;20.074;2023-08-01T21:05:57;5.20;;;3.20;;
34204;SDS011;20471;49.680;20.074;2023-08-01T21:08:25;4.70;;;2.70;;
34204;SDS011;20471;49.680;20.074;2023-08-01T21:10:52;4.70;;;2.80;;
34204;SDS011;20471;49.680;20.074;2023-08-01T21:13:20;3.40;;;2.30;;
34204;SDS011;20471;49.680;20.074;2023-08-01T21:15:48;4.10;;;2.70;;
34204;SDS011;20471;49.680;20.074;2023-08-01T21:18:15;7.80;;;2.50;;
34204;SDS011;20471;49.680;20.074;2023-08-01T21:20:43;4.00;;;2.70;;
34204;SDS011;20471;49.680;20.074;2023-08-01T21:23:11;4.40;;;2.50;;
34204;SDS011;20471;49.680;20.074;2023-08-01T21:25:39;3.80;;;2.90;;
34204;SDS011;20471;49.680;20.074;2023-08-01T21:28:06;3.80;;;2.70;;
34204;SDS011;20471;49.680;20.074;2023-08-01T21:30:34;4.60;;;3.10;;
34204;SDS011;20471;49.680;20.074;2023-08-01T21:50:59;4.30;;;2.70;;
34204;SDS011;20471;49.680;20.074;2023-08-01T22:07:21;3.00;;;2.70;;
34204;SDS011;20471;49.680;20.074;2023-08-01T22:09:47;3.30;;;2.60;;
34204;SDS011;20471;49.680;20.074;2023-08-01T22:12:13;4.90;;;2.60;;
34204;SDS011;20471;49.680;20.074;2023-08-01T22:14:40;4.50;;;2.50;;
34204;SDS011;20471;49.680;20.074;2023-08-01T22:17:06;3.90;;;2.80;;
34204;SDS011;20471;49.680;20.074;2023-08-01T22:19:32;3.60;;;2.40;;
34204;SDS011;20471;49.680;20.074;2023-08-01T22:21:59;3.60;;;2.50;;
34204;SDS011;20471;49.680;20.074;2023-08-01T22:24:25;3.60;;;3.00;;
34204;SDS011;20471;49.680;20.074;2023-08-01T22:26:51;4.50;;;2.70;;
34204;SDS011;20471;49.680;20.074;2023-08-01T22:29:17;2.50;;;2.30;;
34204;SDS011;20471;49.680;20.074;2023-08-01T22:31:44;2.80;;;2.10;;
34204;SDS011;20471;49.680;20.074;2023-08-01T22:34:10;5.40;;;2.70;;
34204;SDS011;20471;49.680;20.074;2023-08-01T22:36:37;5.10;;;2.30;;
34204;SDS011;20471;49.680;20.074;2023-08-01T22:39:03;2.50;;;2.20;;
34204;SDS011;20471;49.680;20.074;2023-08-01T22:41:30;3.40;;;2.20;;
34204;SDS011;20471;49.680;20.074;2023-08-01T22:43:56;2.80;;;2.20;;
34204;SDS011;20471;49.680;20.074;2023-08-01T22:46:23;4.30;;;2.50;;
34204;SDS011;20471;49.680;20.074;2023-08-01T22:48:50;7.20;;;3.00;;